createdAt,value
2019-01-16T00:01:36.424Z,3.70
2019-01-16T00:04:23.755Z,4.10
2019-01-16T00:07:13.401Z,3.73
2019-01-16T00:10:18.416Z,3.57
2019-01-16T00:13:05.694Z,4.00
2019-01-16T00:15:47.556Z,4.20
2019-01-16T00:18:30.108Z,3.90
2019-01-16T00:21:20.001Z,3.63
2019-01-16T00:24:21.932Z,3.73
2019-01-16T00:27:07.633Z,3.70
2019-01-16T00:29:46.733Z,3.50
2019-01-16T00:32:26.270Z,3.30
2019-01-16T00:35:13.588Z,3.80
2019-01-16T00:38:03.486Z,3.53
2019-01-16T00:40:53.234Z,3.13
2019-01-16T00:43:43.014Z,2.97
2019-01-16T00:46:35.865Z,2.80
2019-01-16T00:49:21.921Z,3.10
2019-01-16T00:52:07.139Z,2.53
2019-01-16T00:54:54.242Z,2.80
2019-01-16T00:57:39.617Z,2.63
2019-01-16T01:00:18.841Z,2.60
2019-01-16T01:03:14.693Z,2.53
2019-01-16T01:06:04.393Z,2.47
2019-01-16T01:08:43.149Z,2.20
2019-01-16T01:11:32.816Z,2.40
2019-01-16T01:14:30.609Z,2.70
2019-01-16T01:17:26.514Z,2.83
2019-01-16T01:20:32.042Z,3.07
2019-01-16T01:23:19.109Z,2.63
2019-01-16T01:26:14.956Z,2.53
2019-01-16T01:28:54.453Z,2.80
2019-01-16T01:31:53.425Z,2.87
2019-01-16T01:34:33.014Z,2.93
2019-01-16T01:37:18.793Z,3.20
2019-01-16T01:40:06.105Z,3.00
2019-01-16T01:42:45.428Z,2.50
2019-01-16T01:45:23.580Z,2.57
2019-01-16T01:48:06.432Z,3.00
2019-01-16T01:50:56.269Z,2.87
2019-01-16T01:53:43.396Z,2.60
2019-01-16T01:56:39.814Z,2.50
2019-01-16T01:59:29.911Z,2.70
2019-01-16T02:02:34.836Z,3.10
2019-01-16T02:05:16.385Z,3.23
2019-01-16T02:08:01.154Z,3.00
2019-01-16T02:10:40.810Z,2.83
2019-01-16T02:13:29.393Z,3.00
2019-01-16T02:16:31.340Z,2.60
2019-01-16T02:19:27.473Z,3.00
2019-01-16T02:22:20.503Z,2.40
2019-01-16T02:25:19.882Z,2.60
2019-01-16T02:28:03.882Z,2.20
2019-01-16T02:30:59.641Z,2.60
2019-01-16T02:33:44.953Z,3.00
2019-01-16T02:36:19.040Z,3.00
2019-01-16T02:39:07.315Z,2.73
2019-01-16T02:41:40.778Z,2.40
2019-01-16T02:44:33.626Z,2.50
2019-01-16T02:47:27.253Z,2.37
2019-01-16T02:50:06.068Z,2.60
2019-01-16T02:52:51.961Z,2.70
2019-01-16T02:55:38.483Z,3.17
2019-01-16T02:58:24.134Z,3.03
2019-01-16T03:01:17.305Z,3.37
2019-01-16T03:04:04.420Z,2.90
2019-01-16T03:07:00.401Z,3.00
2019-01-16T03:09:56.531Z,2.83
2019-01-16T03:12:46.334Z,2.40
2019-01-16T03:15:33.438Z,2.80
2019-01-16T03:18:23.515Z,2.80
2019-01-16T03:21:08.924Z,3.10
2019-01-16T03:24:01.955Z,3.30
2019-01-16T03:26:37.474Z,2.50
2019-01-16T03:29:23.065Z,2.30
2019-01-16T03:32:07.981Z,2.30
2019-01-16T03:35:00.790Z,2.37
2019-01-16T03:37:47.947Z,2.40
2019-01-16T03:40:33.412Z,2.20
2019-01-16T03:43:19.447Z,2.17
2019-01-16T03:46:06.656Z,2.17
2019-01-16T03:48:56.423Z,2.60
2019-01-16T03:51:49.502Z,2.17
2019-01-16T03:54:34.935Z,2.30
2019-01-16T03:57:15.509Z,2.30
2019-01-16T04:00:02.626Z,2.20
2019-01-16T04:03:10.038Z,2.30
2019-01-16T04:05:45.768Z,2.10
2019-01-16T04:08:34.210Z,2.60
2019-01-16T04:11:15.044Z,2.80
2019-01-16T04:14:20.440Z,2.13
2019-01-16T04:17:09.363Z,2.53
2019-01-16T04:20:05.207Z,2.50
2019-01-16T04:22:54.943Z,2.53
2019-01-16T04:25:34.356Z,2.37
2019-01-16T04:28:36.533Z,2.63
2019-01-16T04:31:38.606Z,2.37
2019-01-16T04:34:44.001Z,2.73
2019-01-16T04:37:49.214Z,2.70
2019-01-16T04:40:35.081Z,2.43
2019-01-16T04:43:14.175Z,2.87
2019-01-16T04:46:07.186Z,3.13
2019-01-16T04:48:47.202Z,2.93
2019-01-16T04:51:30.850Z,3.00
2019-01-16T04:54:20.857Z,2.90
2019-01-16T04:57:06.484Z,3.37
2019-01-16T04:59:55.890Z,3.10
2019-01-16T05:02:54.792Z,3.10
2019-01-16T05:05:40.453Z,3.10
2019-01-16T05:08:26.141Z,3.30
2019-01-16T05:11:12.442Z,3.10
2019-01-16T05:14:17.373Z,3.50
2019-01-16T05:17:10.826Z,2.87
2019-01-16T05:19:56.805Z,3.37
2019-01-16T05:22:35.147Z,3.20
2019-01-16T05:25:18.257Z,3.00
2019-01-16T05:28:17.416Z,2.23
2019-01-16T05:31:13.432Z,2.47
2019-01-16T05:34:02.382Z,2.50
2019-01-16T05:36:48.036Z,2.60
2019-01-16T05:39:23.322Z,2.70
2019-01-16T05:42:16.608Z,2.50
2019-01-16T05:45:03.777Z,2.53
2019-01-16T05:47:56.918Z,2.60
2019-01-16T05:50:49.950Z,2.40
2019-01-16T05:53:45.763Z,2.30
2019-01-16T05:56:38.592Z,2.50
2019-01-16T05:59:26.038Z,2.63
2019-01-16T06:02:11.586Z,2.53
2019-01-16T06:04:50.009Z,2.60
2019-01-16T06:07:45.868Z,2.30
2019-01-16T06:10:42.045Z,2.47
2019-01-16T06:13:32.096Z,2.10
2019-01-16T06:16:22.109Z,2.40
2019-01-16T06:19:12.122Z,2.00
2019-01-16T06:22:11.032Z,2.30
2019-01-16T06:25:03.779Z,2.10
2019-01-16T06:27:49.056Z,2.47
2019-01-16T06:30:34.219Z,2.00
2019-01-16T06:33:21.321Z,2.80
2019-01-16T06:36:09.350Z,2.50
2019-01-16T06:38:54.860Z,2.70
2019-01-16T06:41:42.635Z,2.47
2019-01-16T06:44:30.825Z,2.53
2019-01-16T06:47:27.198Z,2.57
2019-01-16T06:50:20.272Z,3.07
2019-01-16T06:53:22.491Z,7.70
2019-01-16T06:56:05.007Z,4.27
2019-01-16T06:58:52.171Z,3.10
2019-01-16T07:01:41.868Z,3.30
2019-01-16T07:04:31.695Z,3.07
2019-01-16T07:07:16.281Z,3.40
2019-01-16T07:10:21.486Z,8.50
2019-01-16T07:13:08.592Z,2.67
2019-01-16T07:15:54.003Z,3.23
2019-01-16T07:18:46.857Z,2.67
2019-01-16T07:21:33.960Z,3.50
2019-01-16T07:24:36.149Z,3.10
2019-01-16T07:27:23.339Z,2.60
2019-01-16T07:30:09.045Z,2.90
2019-01-16T07:32:54.856Z,3.20
2019-01-16T07:35:40.429Z,2.80
2019-01-16T07:38:42.732Z,3.33
2019-01-16T07:41:38.843Z,3.40
2019-01-16T07:44:24.168Z,3.50
2019-01-16T07:47:17.201Z,3.80
2019-01-16T07:50:22.084Z,3.23
2019-01-16T07:53:07.057Z,3.83
2019-01-16T07:55:50.874Z,3.70
2019-01-16T07:58:30.387Z,5.17
2019-01-16T08:01:30.999Z,2.90
2019-01-16T08:04:13.835Z,3.40
2019-01-16T08:06:57.388Z,3.30
2019-01-16T08:09:35.731Z,2.83
2019-01-16T08:12:25.511Z,3.60
2019-01-16T08:15:11.057Z,3.90
2019-01-16T08:17:56.689Z,3.90
2019-01-16T08:20:42.558Z,3.50
2019-01-16T08:23:32.559Z,3.77
2019-01-16T08:26:25.318Z,3.40
2019-01-16T08:29:10.668Z,3.37
2019-01-16T08:32:00.637Z,4.10
2019-01-16T08:34:46.032Z,4.30
2019-01-16T08:37:36.096Z,3.37
2019-01-16T08:40:24.530Z,4.03
2019-01-16T08:43:29.433Z,4.10
2019-01-16T08:46:31.576Z,4.47
2019-01-16T08:49:17.240Z,3.97
2019-01-16T08:52:12.359Z,4.60
2019-01-16T08:54:55.032Z,4.90
2019-01-16T08:57:57.286Z,3.80
2019-01-16T09:00:47.087Z,5.57
2019-01-16T09:03:34.241Z,4.57
2019-01-16T09:06:19.632Z,4.20
2019-01-16T09:09:05.240Z,4.40
2019-01-16T09:11:50.919Z,4.57
2019-01-16T09:14:37.981Z,4.23
2019-01-16T09:17:28.870Z,3.90
2019-01-16T09:20:18.969Z,5.70
2019-01-16T09:23:07.925Z,5.47
2019-01-16T09:25:53.492Z,4.50
2019-01-16T09:28:43.588Z,3.63
2019-01-16T09:31:29.384Z,4.57
2019-01-16T09:34:28.483Z,4.50
2019-01-16T09:37:15.890Z,4.60
2019-01-16T09:40:17.756Z,5.77
2019-01-16T09:43:09.384Z,4.53
2019-01-16T09:45:45.308Z,4.90
2019-01-16T09:48:41.313Z,5.10
2019-01-16T09:51:37.180Z,4.80
2019-01-16T09:54:42.321Z,6.23
2019-01-16T09:57:41.321Z,7.00
2019-01-16T10:00:46.076Z,7.03
2019-01-16T10:03:31.688Z,6.30
2019-01-16T10:06:22.240Z,5.30
2019-01-16T10:09:01.596Z,5.10
2019-01-16T10:12:00.705Z,4.40
2019-01-16T10:14:58.134Z,4.17
2019-01-16T10:17:47.292Z,4.33
2019-01-16T10:20:32.572Z,4.13
2019-01-16T10:23:25.784Z,4.50
2019-01-16T10:26:19.006Z,5.80
2019-01-16T10:28:58.450Z,4.87
2019-01-16T10:31:54.430Z,4.40
2019-01-16T10:34:42.992Z,6.00
2019-01-16T10:37:28.496Z,5.57
2019-01-16T10:40:13.979Z,4.73
2019-01-16T10:43:08.955Z,4.40
2019-01-16T10:46:07.420Z,4.40
2019-01-16T10:48:53.080Z,3.93
2019-01-16T10:51:52.273Z,4.23
2019-01-16T10:54:33.905Z,3.90
2019-01-16T10:57:23.905Z,4.53
2019-01-16T11:00:05.861Z,4.20
2019-01-16T11:02:44.153Z,4.27
2019-01-16T11:05:37.552Z,5.17
2019-01-16T11:08:34.010Z,3.70
2019-01-16T11:11:19.708Z,3.63
2019-01-16T11:14:05.274Z,3.70
2019-01-16T11:16:56.763Z,4.00
2019-01-16T11:19:55.909Z,3.13
2019-01-16T11:22:41.660Z,5.17
2019-01-16T11:25:30.976Z,5.67
2019-01-16T11:28:12.879Z,6.90
2019-01-16T11:30:57.011Z,6.67
2019-01-16T11:33:44.092Z,7.27
2019-01-16T11:36:29.956Z,8.23
2019-01-16T11:39:15.549Z,6.83
2019-01-16T11:41:58.526Z,6.67
2019-01-16T11:44:48.511Z,6.50
2019-01-16T11:47:31.197Z,6.73
2019-01-16T11:50:18.356Z,6.57
2019-01-16T11:53:01.684Z,5.60
2019-01-16T11:55:51.765Z,6.23
2019-01-16T11:58:39.020Z,6.03
2019-01-16T12:01:29.704Z,6.00
2019-01-16T12:04:16.816Z,5.63
2019-01-16T12:07:12.806Z,6.53
2019-01-16T12:10:05.536Z,6.23
2019-01-16T12:12:55.780Z,5.47
2019-01-16T12:15:32.724Z,5.93
2019-01-16T12:18:13.448Z,4.93
2019-01-16T12:21:04.544Z,5.70
2019-01-16T12:23:49.841Z,4.53
2019-01-16T12:26:30.216Z,3.67
2019-01-16T12:29:17.297Z,4.37
2019-01-16T12:31:53.914Z,4.03
2019-01-16T12:34:49.821Z,4.53
2019-01-16T12:37:35.424Z,4.50
2019-01-16T12:40:30.032Z,5.33
2019-01-16T12:43:13.952Z,5.47
2019-01-16T12:46:03.696Z,5.23
2019-01-16T12:48:46.189Z,5.83
2019-01-16T12:51:42.140Z,5.17
2019-01-16T12:54:44.202Z,5.80
2019-01-16T12:57:34.305Z,5.53
2019-01-16T13:00:18.200Z,5.90
2019-01-16T13:03:08.240Z,6.30
2019-01-16T13:05:53.849Z,5.20
2019-01-16T13:08:38.825Z,5.60
2019-01-16T13:11:25.965Z,6.17
2019-01-16T13:14:06.357Z,6.27
2019-01-16T13:16:56.040Z,6.30
2019-01-16T13:19:55.184Z,6.07
2019-01-16T13:22:45.985Z,5.87
2019-01-16T13:25:43.577Z,5.83
2019-01-16T13:28:30.629Z,5.40
2019-01-16T13:31:09.829Z,6.07
2019-01-16T13:34:02.700Z,5.97
2019-01-16T13:37:01.589Z,5.70
2019-01-16T13:39:46.912Z,5.90
2019-01-16T13:42:45.977Z,5.67
2019-01-16T13:45:31.326Z,5.70
2019-01-16T13:48:17.713Z,6.53
2019-01-16T13:51:20.489Z,6.40
2019-01-16T13:54:05.827Z,6.23
2019-01-16T13:56:46.819Z,6.30
2019-01-16T13:59:49.019Z,6.30
2019-01-16T14:02:47.883Z,5.93
2019-01-16T14:05:22.597Z,6.40
2019-01-16T14:07:59.933Z,7.03
2019-01-16T14:10:52.732Z,6.90
2019-01-16T14:13:42.785Z,7.00
2019-01-16T14:16:47.853Z,7.00
2019-01-16T14:19:37.829Z,6.83
2019-01-16T14:22:36.617Z,6.43
2019-01-16T14:25:22.533Z,6.87
2019-01-16T14:28:08.195Z,6.73
2019-01-16T14:31:10.301Z,5.60
2019-01-16T14:34:07.088Z,7.10
2019-01-16T14:37:09.016Z,7.47
2019-01-16T14:39:56.116Z,6.03
2019-01-16T14:42:32.669Z,6.37
2019-01-16T14:45:20.185Z,7.00
2019-01-16T14:47:56.238Z,7.47
2019-01-16T14:50:35.209Z,8.07
2019-01-16T14:53:34.185Z,6.27
2019-01-16T14:56:18.081Z,6.00
2019-01-16T14:59:10.988Z,5.83
2019-01-16T15:02:10.085Z,6.30
2019-01-16T15:05:09.219Z,6.77
2019-01-16T15:07:54.655Z,8.03
2019-01-16T15:10:56.928Z,8.03
2019-01-16T15:13:42.460Z,5.80
2019-01-16T15:16:33.614Z,5.43
2019-01-16T15:19:18.476Z,5.70
2019-01-16T15:22:06.410Z,4.77
2019-01-16T15:24:59.165Z,5.00
2019-01-16T15:27:44.952Z,9.17
2019-01-16T15:30:41.596Z,14.17
2019-01-16T15:33:38.515Z,9.33
2019-01-16T15:36:29.360Z,6.23
2019-01-16T15:39:22.333Z,6.17
2019-01-16T15:42:19.373Z,6.47
2019-01-16T15:45:05.112Z,7.10
2019-01-16T15:47:49.920Z,7.03
2019-01-16T15:50:35.307Z,6.17
2019-01-16T15:53:22.408Z,4.87
2019-01-16T15:56:15.766Z,3.80
2019-01-16T15:59:17.787Z,3.33
2019-01-16T16:02:04.823Z,4.20
2019-01-16T16:05:03.867Z,4.03
2019-01-16T16:07:53.775Z,3.83
2019-01-16T16:10:43.485Z,4.80
2019-01-16T16:13:28.872Z,9.43
2019-01-16T16:16:15.916Z,8.40
2019-01-16T16:19:06.116Z,8.53
2019-01-16T16:21:42.659Z,6.40
2019-01-16T16:24:35.481Z,8.17
2019-01-16T16:27:37.441Z,5.30
2019-01-16T16:30:25.851Z,3.37
2019-01-16T16:33:18.856Z,3.20
2019-01-16T16:36:05.050Z,4.60
2019-01-16T16:39:01.151Z,6.60
2019-01-16T16:41:54.138Z,6.60
2019-01-16T16:44:39.738Z,5.80
2019-01-16T16:47:25.679Z,3.03
2019-01-16T16:50:21.861Z,2.57
2019-01-16T16:53:15.179Z,2.53
2019-01-16T16:56:17.349Z,2.50
2019-01-16T16:59:10.513Z,3.10
2019-01-16T17:02:00.216Z,2.80
2019-01-16T17:04:45.534Z,2.80
2019-01-16T17:07:25.574Z,3.17
2019-01-16T17:10:27.668Z,3.20
2019-01-16T17:13:03.844Z,3.33
2019-01-16T17:15:44.148Z,3.73
2019-01-16T17:18:31.238Z,3.20
2019-01-16T17:21:18.340Z,3.03
2019-01-16T17:24:11.209Z,3.60
2019-01-16T17:26:53.341Z,3.43
2019-01-16T17:29:40.417Z,3.73
2019-01-16T17:32:36.322Z,4.50
2019-01-16T17:35:22.978Z,3.73
2019-01-16T17:38:25.099Z,4.17
2019-01-16T17:41:12.370Z,3.27
2019-01-16T17:44:02.194Z,4.00
2019-01-16T17:47:07.469Z,4.60
2019-01-16T17:49:49.753Z,6.27
2019-01-16T17:52:41.969Z,6.53
2019-01-16T17:55:27.408Z,4.63
2019-01-16T17:58:20.558Z,6.27
2019-01-16T18:01:06.276Z,6.40
2019-01-16T18:03:51.016Z,5.50
2019-01-16T18:06:38.108Z,5.57
2019-01-16T18:09:33.012Z,6.77
2019-01-16T18:12:19.164Z,7.87
2019-01-16T18:15:12.196Z,7.03
2019-01-16T18:18:08.228Z,5.90
2019-01-16T18:21:13.793Z,4.33
2019-01-16T18:23:59.751Z,4.30
2019-01-16T18:26:40.016Z,4.33
2019-01-16T18:29:27.129Z,6.53
2019-01-16T18:32:20.952Z,6.83
2019-01-16T18:35:10.668Z,8.40
2019-01-16T18:37:56.272Z,6.93
2019-01-16T18:40:49.329Z,5.77
2019-01-16T18:43:39.488Z,5.77
2019-01-16T18:46:24.628Z,6.23
2019-01-16T18:49:10.282Z,6.83
2019-01-16T18:51:52.288Z,5.03
2019-01-16T18:54:37.624Z,4.53
2019-01-16T18:57:16.872Z,7.90
2019-01-16T19:00:02.292Z,9.23
2019-01-16T19:02:48.014Z,13.60
2019-01-16T19:05:50.125Z,11.73
2019-01-16T19:08:39.765Z,5.60
2019-01-16T19:11:25.612Z,4.37
2019-01-16T19:14:18.544Z,3.90
2019-01-16T19:17:14.473Z,5.97
2019-01-16T19:19:55.216Z,3.67
2019-01-16T19:22:45.512Z,3.97
2019-01-16T19:25:38.537Z,4.20
2019-01-16T19:28:28.530Z,3.50
2019-01-16T19:31:21.775Z,3.20
2019-01-16T19:34:05.453Z,3.20
2019-01-16T19:36:51.184Z,2.80
2019-01-16T19:39:42.164Z,2.70
2019-01-16T19:42:38.484Z,3.13
2019-01-16T19:45:17.398Z,2.93
2019-01-16T19:48:22.321Z,2.90
2019-01-16T19:51:12.352Z,3.13
2019-01-16T19:54:05.100Z,3.20
2019-01-16T19:56:52.232Z,3.20
2019-01-16T19:59:31.072Z,3.27
2019-01-16T20:02:16.440Z,3.60
2019-01-16T20:05:18.607Z,3.90
2019-01-16T20:08:14.488Z,3.63
2019-01-16T20:11:16.487Z,3.53
2019-01-16T20:14:05.104Z,4.27
2019-01-16T20:16:46.317Z,3.93
2019-01-16T20:19:31.893Z,4.40
2019-01-16T20:22:19.087Z,3.90
2019-01-16T20:25:04.461Z,3.97
2019-01-16T20:27:54.481Z,3.30
2019-01-16T20:30:41.219Z,2.93
2019-01-16T20:33:31.088Z,2.90
2019-01-16T20:36:24.874Z,2.90
2019-01-16T20:39:12.058Z,3.00
2019-01-16T20:42:02.049Z,2.90
2019-01-16T20:44:58.165Z,2.90
2019-01-16T20:47:35.154Z,2.80
2019-01-16T20:50:28.748Z,2.60
2019-01-16T20:53:17.565Z,2.70
2019-01-16T20:56:03.317Z,3.17
2019-01-16T20:58:58.307Z,3.20
2019-01-16T21:01:43.625Z,3.30
2019-01-16T21:04:33.715Z,2.93
2019-01-16T21:07:29.539Z,3.03
2019-01-16T21:10:31.469Z,2.47
2019-01-16T21:13:15.659Z,2.40
2019-01-16T21:15:58.832Z,2.63
2019-01-16T21:18:48.929Z,2.90
2019-01-16T21:21:34.399Z,3.33
2019-01-16T21:24:40.103Z,3.70
2019-01-16T21:27:28.141Z,3.77
2019-01-16T21:30:27.321Z,3.40
2019-01-16T21:33:26.284Z,2.93
2019-01-16T21:36:11.786Z,2.57
2019-01-16T21:38:58.474Z,2.80
2019-01-16T21:41:45.629Z,2.73
2019-01-16T21:44:25.259Z,3.00
2019-01-16T21:47:12.351Z,3.07
2019-01-16T21:50:08.230Z,2.90
2019-01-16T21:52:55.275Z,3.37
2019-01-16T21:55:57.372Z,3.13
2019-01-16T21:58:42.753Z,2.40
2019-01-16T22:01:32.628Z,2.47
2019-01-16T22:04:28.324Z,2.10
2019-01-16T22:07:18.400Z,2.53
2019-01-16T22:10:01.812Z,2.50
2019-01-16T22:12:47.161Z,2.50
2019-01-16T22:15:31.093Z,2.50
2019-01-16T22:18:27.049Z,2.30
2019-01-16T22:21:10.252Z,2.17
2019-01-16T22:24:04.201Z,4.63
2019-01-16T22:27:03.128Z,2.73
2019-01-16T22:29:48.584Z,3.40
2019-01-16T22:32:38.558Z,2.60
2019-01-16T22:35:18.973Z,2.60
2019-01-16T22:38:06.046Z,2.03
2019-01-16T22:41:01.781Z,2.30
2019-01-16T22:43:54.558Z,2.50
2019-01-16T22:46:44.266Z,3.10
2019-01-16T22:49:33.342Z,3.00
2019-01-16T22:52:18.892Z,2.80
2019-01-16T22:55:04.657Z,2.67
2019-01-16T22:58:03.808Z,2.90
2019-01-16T23:01:00.408Z,2.80
2019-01-16T23:03:47.751Z,2.90
2019-01-16T23:06:33.397Z,2.73
2019-01-16T23:09:20.637Z,3.00
2019-01-16T23:12:10.441Z,3.40
2019-01-16T23:15:00.524Z,2.93
2019-01-16T23:17:56.911Z,2.87
2019-01-16T23:20:34.598Z,2.70
2019-01-16T23:23:27.306Z,3.13
2019-01-16T23:26:13.232Z,2.87
2019-01-16T23:29:03.978Z,2.80
2019-01-16T23:31:51.122Z,2.70
2019-01-16T23:34:30.964Z,2.70
2019-01-16T23:37:18.072Z,2.70
2019-01-16T23:40:03.982Z,2.73
2019-01-16T23:42:46.517Z,2.73
2019-01-16T23:45:31.870Z,2.73
2019-01-16T23:48:19.268Z,2.90
2019-01-16T23:51:16.375Z,2.73
2019-01-16T23:54:03.515Z,2.50
2019-01-16T23:56:49.266Z,2.60
2019-01-16T23:59:51.403Z,2.90
